CCA1535 ZSAM-ZWWW
Flight info
| Callsign | CCA1535 |
|---|---|
| Flight time | N/A |
| Altitude | 35100 |
| Route | VARMI W190 ADPET W188 DAKPA W189 AKLAS W192 ESDEX W191 DNC W565 BIGUX W214 HO EPDOR ATGEN W283 SUDGO W4 UPSIK W282 NUGSA ML W118 REVKU FYG B208 HFE R343 SASAN |
| Aircraft | A339/H-SADE1E2E3GHIJ1J3J5M1P2RWXY/LB1 |
Departure
| Time | N/A |
|---|---|
| Airport | Xiamen Gaoqi International Airport (ZSAM) |
Arrival
| Time | 2026-04-30 07:49 |
|---|---|
| Airport | Ürümqi Tianshan International Airport (ZWWW) |
| Time | Latitude | Longitude | Altitude | Speed | Heading |
|---|---|---|---|---|---|
| 2026-04-30 07:49 | 43.92219 | 87.48530 | 2146 ft | 0 kts | 162° |
| 2026-04-30 07:54 | 43.92227 | 87.48526 | 2146 ft | 2 kts | 162° |
| 2026-04-30 07:54 | 43.92242 | 87.48520 | 2146 ft | 2 kts | 162° |
| 2026-04-30 07:54 | 43.92256 | 87.48514 | 2146 ft | 2 kts | 162° |
| 2026-04-30 07:54 | 43.92270 | 87.48508 | 2146 ft | 2 kts | 163° |
| 2026-04-30 07:55 | 43.92285 | 87.48505 | 2146 ft | 2 kts | 192° |
| 2026-04-30 07:55 | 43.92299 | 87.48513 | 2146 ft | 2 kts | 217° |
| 2026-04-30 07:55 | 43.92309 | 87.48528 | 2146 ft | 2 kts | 241° |
| 2026-04-30 07:55 | 43.92313 | 87.48538 | 2146 ft | 0 kts | 255° |
| 2026-04-30 07:56 | 43.92314 | 87.48543 | 2146 ft | 0 kts | 255° |
| 2026-04-30 07:58 | 43.92313 | 87.48541 | 2146 ft | 0 kts | 255° |
| 2026-04-30 07:58 | 43.92310 | 87.48524 | 2146 ft | 2 kts | 253° |
| 2026-04-30 07:58 | 43.92302 | 87.48489 | 2146 ft | 4 kts | 253° |
| 2026-04-30 07:59 | 43.92292 | 87.48437 | 2146 ft | 6 kts | 253° |
| 2026-04-30 07:59 | 43.92277 | 87.48370 | 2146 ft | 7 kts | 253° |
| 2026-04-30 07:59 | 43.92260 | 87.48292 | 2146 ft | 9 kts | 253° |
| 2026-04-30 08:00 | 43.92264 | 87.48202 | 2146 ft | 5 kts | 328° |
| 2026-04-30 08:00 | 43.92301 | 87.48182 | 2146 ft | 6 kts | 343° |
| 2026-04-30 08:00 | 43.92350 | 87.48161 | 2146 ft | 7 kts | 343° |
| 2026-04-30 08:00 | 43.92384 | 87.48143 | 2146 ft | 3 kts | 318° |
| 2026-04-30 08:01 | 43.92394 | 87.48099 | 2146 ft | 5 kts | 270° |
| 2026-04-30 08:01 | 43.92384 | 87.48037 | 2146 ft | 7 kts | 253° |
| 2026-04-30 08:01 | 43.92365 | 87.47949 | 2146 ft | 10 kts | 253° |
| 2026-04-30 08:01 | 43.92341 | 87.47839 | 2146 ft | 13 kts | 253° |
| 2026-04-30 08:02 | 43.92281 | 87.47558 | 2146 ft | 17 kts | 253° |
| 2026-04-30 08:02 | 43.92246 | 87.47395 | 2146 ft | 18 kts | 253° |
| 2026-04-30 08:03 | 43.92172 | 87.47046 | 2146 ft | 18 kts | 254° |
| 2026-04-30 08:03 | 43.92100 | 87.46708 | 2146 ft | 18 kts | 253° |
| 2026-04-30 08:03 | 43.92064 | 87.46542 | 2146 ft | 17 kts | 253° |
| 2026-04-30 08:04 | 43.92029 | 87.46377 | 2146 ft | 17 kts | 253° |
| 2026-04-30 08:04 | 43.91994 | 87.46213 | 2146 ft | 17 kts | 253° |
| 2026-04-30 08:04 | 43.91960 | 87.46052 | 2146 ft | 17 kts | 253° |
| 2026-04-30 08:04 | 43.91926 | 87.45890 | 2147 ft | 17 kts | 253° |
| 2026-04-30 08:05 | 43.91897 | 87.45756 | 2147 ft | 14 kts | 253° |